sensor_id;sensor_type;location;lat;lon;timestamp;P1;durP1;ratioP1;P2;durP2;ratioP2
13040;SDS011;6587;42.728;23.288;2022-12-10T00:00:08;24.17;;;12.33;;
13040;SDS011;6587;42.728;23.288;2022-12-10T00:02:36;23.93;;;13.07;;
13040;SDS011;6587;42.728;23.288;2022-12-10T00:05:03;34.17;;;16.03;;
13040;SDS011;6587;42.728;23.288;2022-12-10T00:07:32;31.50;;;15.60;;
13040;SDS011;6587;42.728;23.288;2022-12-10T00:09:59;32.17;;;14.70;;
13040;SDS011;6587;42.728;23.288;2022-12-10T00:12:26;25.20;;;14.13;;
13040;SDS011;6587;42.728;23.288;2022-12-10T00:14:53;30.33;;;15.23;;
13040;SDS011;6587;42.728;23.288;2022-12-10T00:17:20;33.70;;;15.57;;
13040;SDS011;6587;42.728;23.288;2022-12-10T00:19:47;31.60;;;14.13;;
13040;SDS011;6587;42.728;23.288;2022-12-10T00:22:14;34.87;;;16.27;;
13040;SDS011;6587;42.728;23.288;2022-12-10T00:24:42;29.97;;;15.53;;
13040;SDS011;6587;42.728;23.288;2022-12-10T00:27:09;27.83;;;14.53;;
13040;SDS011;6587;42.728;23.288;2022-12-10T00:29:39;32.40;;;14.83;;
13040;SDS011;6587;42.728;23.288;2022-12-10T00:32:06;28.43;;;13.67;;
13040;SDS011;6587;42.728;23.288;2022-12-10T00:34:33;28.90;;;12.87;;
13040;SDS011;6587;42.728;23.288;2022-12-10T00:37:01;27.40;;;13.23;;
13040;SDS011;6587;42.728;23.288;2022-12-10T00:39:28;28.07;;;11.97;;
13040;SDS011;6587;42.728;23.288;2022-12-10T00:41:56;21.53;;;10.33;;
13040;SDS011;6587;42.728;23.288;2022-12-10T00:44:24;17.10;;;9.83;;
13040;SDS011;6587;42.728;23.288;2022-12-10T00:46:51;15.90;;;9.17;;
13040;SDS011;6587;42.728;23.288;2022-12-10T00:49:19;22.40;;;9.53;;
13040;SDS011;6587;42.728;23.288;2022-12-10T00:51:48;20.20;;;10.07;;
13040;SDS011;6587;42.728;23.288;2022-12-10T00:54:15;17.13;;;10.63;;
13040;SDS011;6587;42.728;23.288;2022-12-10T00:56:42;18.13;;;10.30;;
13040;SDS011;6587;42.728;23.288;2022-12-10T00:59:11;22.27;;;9.60;;
13040;SDS011;6587;42.728;23.288;2022-12-10T01:01:40;21.43;;;9.87;;
13040;SDS011;6587;42.728;23.288;2022-12-10T01:04:08;21.53;;;9.83;;
13040;SDS011;6587;42.728;23.288;2022-12-10T01:06:40;16.97;;;8.67;;
13040;SDS011;6587;42.728;23.288;2022-12-10T01:09:09;15.93;;;9.27;;
13040;SDS011;6587;42.728;23.288;2022-12-10T01:11:39;19.10;;;8.80;;
13040;SDS011;6587;42.728;23.288;2022-12-10T01:14:09;18.93;;;8.73;;
13040;SDS011;6587;42.728;23.288;2022-12-10T01:16:38;17.43;;;8.90;;
13040;SDS011;6587;42.728;23.288;2022-12-10T01:19:05;21.83;;;8.70;;
13040;SDS011;6587;42.728;23.288;2022-12-10T01:21:33;18.77;;;8.87;;
13040;SDS011;6587;42.728;23.288;2022-12-10T01:24:01;14.43;;;7.90;;
13040;SDS011;6587;42.728;23.288;2022-12-10T01:26:29;17.43;;;8.20;;
13040;SDS011;6587;42.728;23.288;2022-12-10T01:29:00;17.30;;;8.97;;
13040;SDS011;6587;42.728;23.288;2022-12-10T01:31:29;17.03;;;9.03;;
13040;SDS011;6587;42.728;23.288;2022-12-10T01:33:57;16.30;;;9.47;;
13040;SDS011;6587;42.728;23.288;2022-12-10T01:36:26;20.33;;;10.17;;
13040;SDS011;6587;42.728;23.288;2022-12-10T01:38:55;19.90;;;8.60;;
13040;SDS011;6587;42.728;23.288;2022-12-10T01:41:23;14.13;;;9.00;;
13040;SDS011;6587;42.728;23.288;2022-12-10T01:43:54;17.00;;;8.70;;
13040;SDS011;6587;42.728;23.288;2022-12-10T01:46:24;16.97;;;8.40;;
13040;SDS011;6587;42.728;23.288;2022-12-10T01:48:56;13.23;;;7.10;;
13040;SDS011;6587;42.728;23.288;2022-12-10T01:51:26;22.73;;;8.87;;
13040;SDS011;6587;42.728;23.288;2022-12-10T01:53:55;19.23;;;8.03;;
13040;SDS011;6587;42.728;23.288;2022-12-10T01:56:22;12.77;;;7.90;;
13040;SDS011;6587;42.728;23.288;2022-12-10T01:58:50;18.13;;;8.17;;
13040;SDS011;6587;42.728;23.288;2022-12-10T02:01:21;11.87;;;6.83;;
13040;SDS011;6587;42.728;23.288;2022-12-10T02:03:58;19.77;;;7.83;;
13040;SDS011;6587;42.728;23.288;2022-12-10T02:06:42;13.20;;;7.10;;
13040;SDS011;6587;42.728;23.288;2022-12-10T02:09:15;12.33;;;7.70;;
13040;SDS011;6587;42.728;23.288;2022-12-10T02:11:50;12.20;;;7.07;;
13040;SDS011;6587;42.728;23.288;2022-12-10T02:14:27;14.60;;;8.83;;
13040;SDS011;6587;42.728;23.288;2022-12-10T02:17:05;12.43;;;8.03;;
13040;SDS011;6587;42.728;23.288;2022-12-10T02:19:52;15.80;;;8.60;;
13040;SDS011;6587;42.728;23.288;2022-12-10T02:22:25;14.00;;;8.90;;
13040;SDS011;6587;42.728;23.288;2022-12-10T02:24:57;17.63;;;8.73;;
13040;SDS011;6587;42.728;23.288;2022-12-10T02:27:27;16.03;;;9.03;;
13040;SDS011;6587;42.728;23.288;2022-12-10T02:30:10;15.47;;;8.83;;
13040;SDS011;6587;42.728;23.288;2022-12-10T02:32:41;16.97;;;9.43;;
13040;SDS011;6587;42.728;23.288;2022-12-10T02:35:14;19.47;;;8.73;;
13040;SDS011;6587;42.728;23.288;2022-12-10T02:37:47;15.77;;;9.20;;
13040;SDS011;6587;42.728;23.288;2022-12-10T02:40:17;17.80;;;8.73;;
13040;SDS011;6587;42.728;23.288;2022-12-10T02:42:50;17.70;;;9.07;;
13040;SDS011;6587;42.728;23.288;2022-12-10T02:45:21;18.67;;;9.40;;
13040;SDS011;6587;42.728;23.288;2022-12-10T02:47:53;21.67;;;9.70;;
13040;SDS011;6587;42.728;23.288;2022-12-10T02:50:25;17.27;;;9.77;;
13040;SDS011;6587;42.728;23.288;2022-12-10T02:52:52;18.27;;;9.57;;
13040;SDS011;6587;42.728;23.288;2022-12-10T02:55:19;19.10;;;9.60;;
13040;SDS011;6587;42.728;23.288;2022-12-10T02:57:53;20.13;;;9.47;;
13040;SDS011;6587;42.728;23.288;2022-12-10T03:00:31;19.90;;;9.90;;
13040;SDS011;6587;42.728;23.288;2022-12-10T03:06:03;41.13;;;16.50;;
13040;SDS011;6587;42.728;23.288;2022-12-10T03:08:38;25.43;;;12.70;;
13040;SDS011;6587;42.728;23.288;2022-12-10T03:11:11;23.63;;;12.40;;
13040;SDS011;6587;42.728;23.288;2022-12-10T03:13:41;20.40;;;11.57;;
13040;SDS011;6587;42.728;23.288;2022-12-10T03:16:16;20.53;;;11.10;;
13040;SDS011;6587;42.728;23.288;2022-12-10T03:18:45;20.83;;;11.00;;
13040;SDS011;6587;42.728;23.288;2022-12-10T03:21:16;17.80;;;10.40;;
13040;SDS011;6587;42.728;23.288;2022-12-10T03:23:45;25.40;;;12.70;;
13040;SDS011;6587;42.728;23.288;2022-12-10T03:26:14;21.03;;;12.10;;
13040;SDS011;6587;42.728;23.288;2022-12-10T03:28:45;20.83;;;12.37;;
13040;SDS011;6587;42.728;23.288;2022-12-10T03:31:17;22.67;;;11.87;;
13040;SDS011;6587;42.728;23.288;2022-12-10T03:33:46;21.20;;;10.93;;
13040;SDS011;6587;42.728;23.288;2022-12-10T03:36:15;20.60;;;11.40;;
13040;SDS011;6587;42.728;23.288;2022-12-10T03:38:43;20.80;;;11.13;;
13040;SDS011;6587;42.728;23.288;2022-12-10T03:41:10;26.27;;;11.93;;
13040;SDS011;6587;42.728;23.288;2022-12-10T03:43:48;21.00;;;11.27;;
13040;SDS011;6587;42.728;23.288;2022-12-10T03:46:18;19.60;;;10.33;;
13040;SDS011;6587;42.728;23.288;2022-12-10T03:48:45;23.00;;;12.10;;
13040;SDS011;6587;42.728;23.288;2022-12-10T03:51:13;18.97;;;11.17;;
13040;SDS011;6587;42.728;23.288;2022-12-10T03:53:40;19.47;;;11.70;;
13040;SDS011;6587;42.728;23.288;2022-12-10T03:56:07;19.30;;;11.67;;
13040;SDS011;6587;42.728;23.288;2022-12-10T03:58:34;21.97;;;11.43;;
13040;SDS011;6587;42.728;23.288;2022-12-10T04:01:01;23.50;;;12.77;;
13040;SDS011;6587;42.728;23.288;2022-12-10T04:03:30;24.57;;;12.60;;
13040;SDS011;6587;42.728;23.288;2022-12-10T04:06:02;23.77;;;12.67;;
13040;SDS011;6587;42.728;23.288;2022-12-10T04:08:29;22.00;;;12.57;;
13040;SDS011;6587;42.728;23.288;2022-12-10T04:11:01;24.73;;;12.30;;
13040;SDS011;6587;42.728;23.288;2022-12-10T04:13:31;22.50;;;12.90;;
13040;SDS011;6587;42.728;23.288;2022-12-10T04:16:16;22.27;;;12.87;;
13040;SDS011;6587;42.728;23.288;2022-12-10T04:18:57;28.80;;;17.50;;
13040;SDS011;6587;42.728;23.288;2022-12-10T04:21:25;30.23;;;17.67;;
13040;SDS011;6587;42.728;23.288;2022-12-10T04:24:11;32.03;;;16.87;;
13040;SDS011;6587;42.728;23.288;2022-12-10T04:26:56;28.83;;;16.97;;
13040;SDS011;6587;42.728;23.288;2022-12-10T04:29:26;29.50;;;16.77;;
13040;SDS011;6587;42.728;23.288;2022-12-10T04:31:55;24.23;;;15.53;;
13040;SDS011;6587;42.728;23.288;2022-12-10T04:34:24;30.27;;;17.37;;
13040;SDS011;6587;42.728;23.288;2022-12-10T04:36:52;25.63;;;15.60;;
13040;SDS011;6587;42.728;23.288;2022-12-10T04:39:19;31.33;;;20.43;;
13040;SDS011;6587;42.728;23.288;2022-12-10T04:41:47;33.73;;;18.40;;
13040;SDS011;6587;42.728;23.288;2022-12-10T04:44:15;36.00;;;17.50;;
13040;SDS011;6587;42.728;23.288;2022-12-10T04:46:42;27.50;;;15.10;;
13040;SDS011;6587;42.728;23.288;2022-12-10T04:49:09;25.77;;;14.47;;
13040;SDS011;6587;42.728;23.288;2022-12-10T04:51:38;22.20;;;12.23;;
13040;SDS011;6587;42.728;23.288;2022-12-10T04:54:06;21.67;;;12.60;;
13040;SDS011;6587;42.728;23.288;2022-12-10T04:56:34;32.97;;;17.80;;
13040;SDS011;6587;42.728;23.288;2022-12-10T04:59:01;29.50;;;16.23;;
13040;SDS011;6587;42.728;23.288;2022-12-10T05:01:30;25.67;;;13.67;;
13040;SDS011;6587;42.728;23.288;2022-12-10T05:03:58;33.27;;;19.53;;
13040;SDS011;6587;42.728;23.288;2022-12-10T05:06:27;31.50;;;19.03;;
13040;SDS011;6587;42.728;23.288;2022-12-10T05:08:55;39.47;;;18.87;;
13040;SDS011;6587;42.728;23.288;2022-12-10T05:11:23;30.10;;;17.50;;
13040;SDS011;6587;42.728;23.288;2022-12-10T05:13:52;27.57;;;15.67;;
13040;SDS011;6587;42.728;23.288;2022-12-10T05:16:19;29.40;;;15.83;;
13040;SDS011;6587;42.728;23.288;2022-12-10T05:18:48;30.03;;;14.80;;
13040;SDS011;6587;42.728;23.288;2022-12-10T05:21:16;34.33;;;18.57;;
13040;SDS011;6587;42.728;23.288;2022-12-10T05:23:46;31.00;;;16.37;;
13040;SDS011;6587;42.728;23.288;2022-12-10T05:26:16;34.23;;;17.17;;
13040;SDS011;6587;42.728;23.288;2022-12-10T05:28:45;30.47;;;16.50;;
13040;SDS011;6587;42.728;23.288;2022-12-10T05:31:13;28.80;;;16.37;;
13040;SDS011;6587;42.728;23.288;2022-12-10T05:33:41;29.40;;;15.00;;
13040;SDS011;6587;42.728;23.288;2022-12-10T05:36:09;26.13;;;15.07;;
13040;SDS011;6587;42.728;23.288;2022-12-10T05:38:38;35.33;;;17.97;;
13040;SDS011;6587;42.728;23.288;2022-12-10T05:41:08;35.37;;;18.87;;
13040;SDS011;6587;42.728;23.288;2022-12-10T05:43:38;32.60;;;16.53;;
13040;SDS011;6587;42.728;23.288;2022-12-10T05:46:06;30.30;;;15.83;;
13040;SDS011;6587;42.728;23.288;2022-12-10T05:48:35;29.87;;;16.33;;
13040;SDS011;6587;42.728;23.288;2022-12-10T05:51:03;32.30;;;17.80;;
13040;SDS011;6587;42.728;23.288;2022-12-10T05:53:30;28.80;;;15.67;;
13040;SDS011;6587;42.728;23.288;2022-12-10T05:56:00;26.03;;;14.63;;
13040;SDS011;6587;42.728;23.288;2022-12-10T05:58:28;30.10;;;15.60;;
13040;SDS011;6587;42.728;23.288;2022-12-10T06:00:57;32.20;;;16.47;;
13040;SDS011;6587;42.728;23.288;2022-12-10T06:03:26;26.70;;;16.67;;
13040;SDS011;6587;42.728;23.288;2022-12-10T06:05:53;48.20;;;28.50;;
13040;SDS011;6587;42.728;23.288;2022-12-10T06:08:21;39.43;;;20.90;;
13040;SDS011;6587;42.728;23.288;2022-12-10T06:10:48;36.10;;;19.40;;
13040;SDS011;6587;42.728;23.288;2022-12-10T06:13:15;32.20;;;19.47;;
13040;SDS011;6587;42.728;23.288;2022-12-10T06:15:42;34.30;;;18.93;;
13040;SDS011;6587;42.728;23.288;2022-12-10T06:18:11;38.80;;;21.57;;
13040;SDS011;6587;42.728;23.288;2022-12-10T06:20:38;32.13;;;16.63;;
13040;SDS011;6587;42.728;23.288;2022-12-10T06:23:05;31.63;;;18.53;;
13040;SDS011;6587;42.728;23.288;2022-12-10T06:25:32;28.07;;;14.97;;
13040;SDS011;6587;42.728;23.288;2022-12-10T06:27:59;32.77;;;17.17;;
13040;SDS011;6587;42.728;23.288;2022-12-10T06:30:26;32.20;;;18.93;;
13040;SDS011;6587;42.728;23.288;2022-12-10T06:32:53;27.63;;;16.77;;
13040;SDS011;6587;42.728;23.288;2022-12-10T06:35:21;31.43;;;17.17;;
13040;SDS011;6587;42.728;23.288;2022-12-10T06:37:48;30.40;;;17.43;;
13040;SDS011;6587;42.728;23.288;2022-12-10T06:40:16;31.93;;;17.33;;
13040;SDS011;6587;42.728;23.288;2022-12-10T06:42:43;40.23;;;23.37;;
13040;SDS011;6587;42.728;23.288;2022-12-10T06:45:11;30.23;;;19.07;;
13040;SDS011;6587;42.728;23.288;2022-12-10T06:47:38;37.30;;;19.87;;
13040;SDS011;6587;42.728;23.288;2022-12-10T06:50:05;38.23;;;21.47;;
13040;SDS011;6587;42.728;23.288;2022-12-10T06:52:33;39.70;;;21.43;;
13040;SDS011;6587;42.728;23.288;2022-12-10T06:55:00;34.70;;;17.93;;
13040;SDS011;6587;42.728;23.288;2022-12-10T06:57:27;28.87;;;18.37;;
13040;SDS011;6587;42.728;23.288;2022-12-10T06:59:55;32.97;;;20.20;;
13040;SDS011;6587;42.728;23.288;2022-12-10T07:02:22;38.27;;;20.07;;
13040;SDS011;6587;42.728;23.288;2022-12-10T07:04:48;28.17;;;16.67;;
13040;SDS011;6587;42.728;23.288;2022-12-10T07:07:15;30.30;;;17.70;;
13040;SDS011;6587;42.728;23.288;2022-12-10T07:09:44;34.83;;;20.23;;
13040;SDS011;6587;42.728;23.288;2022-12-10T07:12:10;29.40;;;17.67;;
13040;SDS011;6587;42.728;23.288;2022-12-10T07:14:37;30.83;;;19.37;;
13040;SDS011;6587;42.728;23.288;2022-12-10T07:17:04;30.23;;;17.10;;
13040;SDS011;6587;42.728;23.288;2022-12-10T07:19:31;27.17;;;16.33;;
13040;SDS011;6587;42.728;23.288;2022-12-10T07:21:58;27.70;;;15.57;;
13040;SDS011;6587;42.728;23.288;2022-12-10T07:24:25;26.83;;;15.50;;
13040;SDS011;6587;42.728;23.288;2022-12-10T07:26:53;29.93;;;16.60;;
13040;SDS011;6587;42.728;23.288;2022-12-10T07:29:21;28.03;;;17.17;;
13040;SDS011;6587;42.728;23.288;2022-12-10T07:31:48;32.63;;;18.03;;
13040;SDS011;6587;42.728;23.288;2022-12-10T07:34:16;29.43;;;17.73;;
13040;SDS011;6587;42.728;23.288;2022-12-10T07:36:43;29.47;;;17.20;;
13040;SDS011;6587;42.728;23.288;2022-12-10T07:39:10;32.37;;;18.97;;
13040;SDS011;6587;42.728;23.288;2022-12-10T07:41:42;25.37;;;15.30;;
13040;SDS011;6587;42.728;23.288;2022-12-10T07:44:12;26.73;;;16.43;;
13040;SDS011;6587;42.728;23.288;2022-12-10T07:46:39;25.10;;;15.57;;
13040;SDS011;6587;42.728;23.288;2022-12-10T07:49:06;23.33;;;15.10;;
13040;SDS011;6587;42.728;23.288;2022-12-10T07:51:33;28.67;;;15.20;;
13040;SDS011;6587;42.728;23.288;2022-12-10T07:54:00;27.23;;;16.00;;
13040;SDS011;6587;42.728;23.288;2022-12-10T07:56:27;46.00;;;28.50;;
13040;SDS011;6587;42.728;23.288;2022-12-10T07:58:54;39.27;;;25.67;;
13040;SDS011;6587;42.728;23.288;2022-12-10T08:01:23;35.10;;;23.40;;
13040;SDS011;6587;42.728;23.288;2022-12-10T08:03:52;34.43;;;21.67;;
13040;SDS011;6587;42.728;23.288;2022-12-10T08:06:21;32.37;;;19.30;;
13040;SDS011;6587;42.728;23.288;2022-12-10T08:08:49;31.33;;;18.97;;
13040;SDS011;6587;42.728;23.288;2022-12-10T08:11:17;28.80;;;18.77;;
13040;SDS011;6587;42.728;23.288;2022-12-10T08:13:45;34.73;;;19.50;;
13040;SDS011;6587;42.728;23.288;2022-12-10T08:16:13;28.27;;;17.23;;
13040;SDS011;6587;42.728;23.288;2022-12-10T08:18:43;28.73;;;17.93;;
13040;SDS011;6587;42.728;23.288;2022-12-10T08:21:12;30.53;;;19.50;;
13040;SDS011;6587;42.728;23.288;2022-12-10T08:23:40;32.27;;;18.50;;
13040;SDS011;6587;42.728;23.288;2022-12-10T08:26:08;29.37;;;16.40;;
13040;SDS011;6587;42.728;23.288;2022-12-10T08:28:41;27.60;;;15.43;;
13040;SDS011;6587;42.728;23.288;2022-12-10T08:31:08;25.07;;;15.23;;
13040;SDS011;6587;42.728;23.288;2022-12-10T08:33:36;25.33;;;15.37;;
13040;SDS011;6587;42.728;23.288;2022-12-10T08:36:06;25.73;;;15.33;;
13040;SDS011;6587;42.728;23.288;2022-12-10T08:38:34;22.93;;;14.40;;
13040;SDS011;6587;42.728;23.288;2022-12-10T08:41:05;21.13;;;12.70;;
13040;SDS011;6587;42.728;23.288;2022-12-10T08:43:32;22.87;;;12.43;;
13040;SDS011;6587;42.728;23.288;2022-12-10T08:45:59;25.10;;;12.73;;
13040;SDS011;6587;42.728;23.288;2022-12-10T08:48:26;22.33;;;12.77;;
13040;SDS011;6587;42.728;23.288;2022-12-10T08:50:53;21.77;;;12.53;;
13040;SDS011;6587;42.728;23.288;2022-12-10T08:53:22;19.20;;;12.53;;
13040;SDS011;6587;42.728;23.288;2022-12-10T08:55:49;23.50;;;12.13;;
13040;SDS011;6587;42.728;23.288;2022-12-10T08:58:17;19.90;;;11.17;;
13040;SDS011;6587;42.728;23.288;2022-12-10T09:00:44;18.43;;;11.47;;
13040;SDS011;6587;42.728;23.288;2022-12-10T09:03:11;15.23;;;9.90;;
13040;SDS011;6587;42.728;23.288;2022-12-10T09:05:38;16.87;;;10.30;;
13040;SDS011;6587;42.728;23.288;2022-12-10T09:08:05;17.60;;;11.37;;
13040;SDS011;6587;42.728;23.288;2022-12-10T09:10:33;17.47;;;10.10;;
13040;SDS011;6587;42.728;23.288;2022-12-10T09:13:01;13.43;;;8.67;;
13040;SDS011;6587;42.728;23.288;2022-12-10T09:15:28;15.10;;;9.13;;
13040;SDS011;6587;42.728;23.288;2022-12-10T09:17:55;13.67;;;8.50;;
13040;SDS011;6587;42.728;23.288;2022-12-10T09:20:22;13.83;;;9.13;;
13040;SDS011;6587;42.728;23.288;2022-12-10T09:22:49;18.13;;;9.00;;
13040;SDS011;6587;42.728;23.288;2022-12-10T09:25:16;19.90;;;10.77;;
13040;SDS011;6587;42.728;23.288;2022-12-10T09:27:46;13.30;;;8.67;;
13040;SDS011;6587;42.728;23.288;2022-12-10T09:30:13;15.37;;;8.60;;
13040;SDS011;6587;42.728;23.288;2022-12-10T09:32:40;14.93;;;8.73;;
13040;SDS011;6587;42.728;23.288;2022-12-10T09:35:07;14.63;;;7.77;;
13040;SDS011;6587;42.728;23.288;2022-12-10T09:37:34;10.73;;;7.97;;
13040;SDS011;6587;42.728;23.288;2022-12-10T09:40:01;13.17;;;8.50;;
13040;SDS011;6587;42.728;23.288;2022-12-10T09:42:32;14.60;;;8.50;;
13040;SDS011;6587;42.728;23.288;2022-12-10T09:45:09;11.07;;;7.37;;
13040;SDS011;6587;42.728;23.288;2022-12-10T09:47:45;13.60;;;7.93;;
13040;SDS011;6587;42.728;23.288;2022-12-10T09:50:20;14.10;;;7.67;;
13040;SDS011;6587;42.728;23.288;2022-12-10T09:52:53;12.27;;;7.50;;
13040;SDS011;6587;42.728;23.288;2022-12-10T09:55:30;16.00;;;8.40;;
13040;SDS011;6587;42.728;23.288;2022-12-10T09:58:01;11.10;;;7.47;;
13040;SDS011;6587;42.728;23.288;2022-12-10T10:00:32;11.40;;;7.13;;
13040;SDS011;6587;42.728;23.288;2022-12-10T10:03:04;12.07;;;7.00;;
13040;SDS011;6587;42.728;23.288;2022-12-10T10:05:33;9.97;;;7.10;;
13040;SDS011;6587;42.728;23.288;2022-12-10T10:08:05;14.37;;;7.57;;
13040;SDS011;6587;42.728;23.288;2022-12-10T10:10:39;16.10;;;7.73;;
13040;SDS011;6587;42.728;23.288;2022-12-10T10:13:11;8.57;;;7.17;;
13040;SDS011;6587;42.728;23.288;2022-12-10T10:15:45;12.53;;;7.37;;
13040;SDS011;6587;42.728;23.288;2022-12-10T10:18:14;13.30;;;7.53;;
13040;SDS011;6587;42.728;23.288;2022-12-10T10:20:43;11.50;;;7.73;;
13040;SDS011;6587;42.728;23.288;2022-12-10T10:23:12;12.27;;;7.80;;
13040;SDS011;6587;42.728;23.288;2022-12-10T10:25:41;14.10;;;8.13;;
13040;SDS011;6587;42.728;23.288;2022-12-10T10:28:09;13.47;;;8.63;;
13040;SDS011;6587;42.728;23.288;2022-12-10T10:30:39;10.60;;;7.80;;
13040;SDS011;6587;42.728;23.288;2022-12-10T10:33:11;12.83;;;8.93;;
13040;SDS011;6587;42.728;23.288;2022-12-10T10:35:43;14.37;;;8.47;;
13040;SDS011;6587;42.728;23.288;2022-12-10T10:38:16;15.97;;;7.73;;
13040;SDS011;6587;42.728;23.288;2022-12-10T10:40:46;11.00;;;7.63;;
13040;SDS011;6587;42.728;23.288;2022-12-10T10:43:18;12.77;;;7.10;;
13040;SDS011;6587;42.728;23.288;2022-12-10T10:45:49;10.27;;;7.10;;
13040;SDS011;6587;42.728;23.288;2022-12-10T10:48:20;11.97;;;6.63;;
13040;SDS011;6587;42.728;23.288;2022-12-10T10:50:49;13.37;;;6.97;;
13040;SDS011;6587;42.728;23.288;2022-12-10T10:53:26;9.33;;;6.30;;
13040;SDS011;6587;42.728;23.288;2022-12-10T10:55:56;11.67;;;6.97;;
13040;SDS011;6587;42.728;23.288;2022-12-10T10:58:26;11.17;;;6.80;;
13040;SDS011;6587;42.728;23.288;2022-12-10T11:00:57;15.90;;;7.57;;
13040;SDS011;6587;42.728;23.288;2022-12-10T11:03:29;11.73;;;6.70;;
13040;SDS011;6587;42.728;23.288;2022-12-10T11:05:58;11.93;;;8.43;;
13040;SDS011;6587;42.728;23.288;2022-12-10T11:08:29;13.80;;;6.43;;
13040;SDS011;6587;42.728;23.288;2022-12-10T11:10:59;11.00;;;6.93;;
13040;SDS011;6587;42.728;23.288;2022-12-10T11:13:30;14.03;;;7.33;;
13040;SDS011;6587;42.728;23.288;2022-12-10T11:19:18;9.43;;;6.13;;
13040;SDS011;6587;42.728;23.288;2022-12-10T11:21:48;11.37;;;6.37;;
13040;SDS011;6587;42.728;23.288;2022-12-10T11:24:17;10.63;;;6.17;;
13040;SDS011;6587;42.728;23.288;2022-12-10T11:26:59;14.13;;;6.37;;
13040;SDS011;6587;42.728;23.288;2022-12-10T11:29:34;10.50;;;6.30;;
13040;SDS011;6587;42.728;23.288;2022-12-10T11:32:23;13.30;;;6.60;;
13040;SDS011;6587;42.728;23.288;2022-12-10T11:35:08;14.37;;;6.47;;
13040;SDS011;6587;42.728;23.288;2022-12-10T11:37:39;9.13;;;5.70;;
13040;SDS011;6587;42.728;23.288;2022-12-10T11:40:28;12.00;;;6.50;;
13040;SDS011;6587;42.728;23.288;2022-12-10T11:43:03;9.63;;;6.20;;
13040;SDS011;6587;42.728;23.288;2022-12-10T11:45:50;11.63;;;6.27;;
13040;SDS011;6587;42.728;23.288;2022-12-10T11:48:30;22.70;;;13.90;;
13040;SDS011;6587;42.728;23.288;2022-12-10T11:51:15;28.40;;;18.10;;
13040;SDS011;6587;42.728;23.288;2022-12-10T11:53:55;14.97;;;10.60;;
13040;SDS011;6587;42.728;23.288;2022-12-10T11:56:39;10.10;;;6.93;;
13040;SDS011;6587;42.728;23.288;2022-12-10T11:59:14;12.43;;;7.33;;
13040;SDS011;6587;42.728;23.288;2022-12-10T12:01:49;9.77;;;6.50;;
13040;SDS011;6587;42.728;23.288;2022-12-10T12:04:30;12.10;;;7.00;;
13040;SDS011;6587;42.728;23.288;2022-12-10T12:07:27;9.50;;;6.93;;
13040;SDS011;6587;42.728;23.288;2022-12-10T12:10:07;13.73;;;6.83;;
13040;SDS011;6587;42.728;23.288;2022-12-10T12:12:57;12.37;;;6.73;;
13040;SDS011;6587;42.728;23.288;2022-12-10T12:15:28;13.87;;;7.10;;
13040;SDS011;6587;42.728;23.288;2022-12-10T12:17:58;11.13;;;6.13;;
13040;SDS011;6587;42.728;23.288;2022-12-10T12:20:34;12.43;;;6.17;;
13040;SDS011;6587;42.728;23.288;2022-12-10T12:23:14;13.20;;;6.97;;
13040;SDS011;6587;42.728;23.288;2022-12-10T12:25:45;9.20;;;6.77;;
13040;SDS011;6587;42.728;23.288;2022-12-10T12:28:14;14.77;;;7.77;;
13040;SDS011;6587;42.728;23.288;2022-12-10T12:30:46;12.47;;;6.47;;
13040;SDS011;6587;42.728;23.288;2022-12-10T12:33:16;12.67;;;7.20;;
13040;SDS011;6587;42.728;23.288;2022-12-10T12:35:55;9.57;;;6.90;;
13040;SDS011;6587;42.728;23.288;2022-12-10T12:38:29;11.77;;;7.20;;
13040;SDS011;6587;42.728;23.288;2022-12-10T12:41:00;10.03;;;6.37;;
13040;SDS011;6587;42.728;23.288;2022-12-10T12:43:36;11.33;;;7.63;;
13040;SDS011;6587;42.728;23.288;2022-12-10T12:46:11;15.60;;;8.50;;
13040;SDS011;6587;42.728;23.288;2022-12-10T12:48:43;15.00;;;8.50;;
13040;SDS011;6587;42.728;23.288;2022-12-10T12:51:16;14.43;;;7.10;;
13040;SDS011;6587;42.728;23.288;2022-12-10T12:53:47;11.00;;;7.33;;
13040;SDS011;6587;42.728;23.288;2022-12-10T12:56:17;13.10;;;7.77;;
13040;SDS011;6587;42.728;23.288;2022-12-10T12:58:55;14.67;;;9.50;;
13040;SDS011;6587;42.728;23.288;2022-12-10T13:01:32;13.20;;;9.07;;
13040;SDS011;6587;42.728;23.288;2022-12-10T13:04:04;29.37;;;14.33;;
13040;SDS011;6587;42.728;23.288;2022-12-10T13:06:32;16.93;;;10.57;;
13040;SDS011;6587;42.728;23.288;2022-12-10T13:09:23;13.67;;;8.37;;
13040;SDS011;6587;42.728;23.288;2022-12-10T13:15:01;18.20;;;9.00;;
13040;SDS011;6587;42.728;23.288;2022-12-10T13:17:40;15.03;;;7.93;;
13040;SDS011;6587;42.728;23.288;2022-12-10T13:20:32;12.53;;;7.07;;
13040;SDS011;6587;42.728;23.288;2022-12-10T13:23:02;11.03;;;6.93;;
13040;SDS011;6587;42.728;23.288;2022-12-10T13:28:27;8.27;;;6.37;;
13040;SDS011;6587;42.728;23.288;2022-12-10T13:31:08;10.13;;;6.77;;
13040;SDS011;6587;42.728;23.288;2022-12-10T13:33:49;14.43;;;8.47;;
13040;SDS011;6587;42.728;23.288;2022-12-10T13:36:22;15.53;;;9.13;;
13040;SDS011;6587;42.728;23.288;2022-12-10T13:38:55;15.97;;;8.57;;
13040;SDS011;6587;42.728;23.288;2022-12-10T13:41:40;14.73;;;8.57;;
13040;SDS011;6587;42.728;23.288;2022-12-10T13:44:46;24.77;;;13.47;;
13040;SDS011;6587;42.728;23.288;2022-12-10T13:47:25;21.50;;;11.80;;
13040;SDS011;6587;42.728;23.288;2022-12-10T13:49:58;20.43;;;12.57;;
13040;SDS011;6587;42.728;23.288;2022-12-10T13:52:29;16.83;;;10.43;;
13040;SDS011;6587;42.728;23.288;2022-12-10T14:01:01;18.17;;;11.27;;
13040;SDS011;6587;42.728;23.288;2022-12-10T14:06:39;23.50;;;14.03;;
13040;SDS011;6587;42.728;23.288;2022-12-10T14:09:11;28.20;;;15.73;;
13040;SDS011;6587;42.728;23.288;2022-12-10T14:11:40;35.67;;;20.80;;
13040;SDS011;6587;42.728;23.288;2022-12-10T14:14:16;38.77;;;24.30;;
13040;SDS011;6587;42.728;23.288;2022-12-10T14:16:50;48.90;;;26.57;;
13040;SDS011;6587;42.728;23.288;2022-12-10T14:19:17;34.17;;;20.07;;
13040;SDS011;6587;42.728;23.288;2022-12-10T14:21:45;40.43;;;21.93;;
13040;SDS011;6587;42.728;23.288;2022-12-10T14:24:26;26.33;;;16.33;;
13040;SDS011;6587;42.728;23.288;2022-12-10T14:26:57;36.53;;;22.87;;
13040;SDS011;6587;42.728;23.288;2022-12-10T14:29:28;40.43;;;22.03;;
13040;SDS011;6587;42.728;23.288;2022-12-10T14:31:55;171.70;;;72.97;;
13040;SDS011;6587;42.728;23.288;2022-12-10T14:34:24;68.67;;;33.83;;
13040;SDS011;6587;42.728;23.288;2022-12-10T14:36:53;36.77;;;20.33;;
13040;SDS011;6587;42.728;23.288;2022-12-10T14:39:24;36.20;;;21.30;;
13040;SDS011;6587;42.728;23.288;2022-12-10T14:41:54;30.10;;;18.93;;
13040;SDS011;6587;42.728;23.288;2022-12-10T14:44:23;27.60;;;14.83;;
13040;SDS011;6587;42.728;23.288;2022-12-10T14:46:52;22.07;;;15.47;;
13040;SDS011;6587;42.728;23.288;2022-12-10T14:49:31;25.17;;;16.80;;
13040;SDS011;6587;42.728;23.288;2022-12-10T14:51:57;27.80;;;16.07;;
13040;SDS011;6587;42.728;23.288;2022-12-10T14:54:27;25.83;;;14.43;;
13040;SDS011;6587;42.728;23.288;2022-12-10T14:56:56;17.83;;;12.23;;
13040;SDS011;6587;42.728;23.288;2022-12-10T14:59:26;18.67;;;10.70;;
13040;SDS011;6587;42.728;23.288;2022-12-10T15:02:01;15.53;;;9.23;;
13040;SDS011;6587;42.728;23.288;2022-12-10T15:04:39;23.07;;;10.50;;
13040;SDS011;6587;42.728;23.288;2022-12-10T15:07:11;17.83;;;9.97;;
13040;SDS011;6587;42.728;23.288;2022-12-10T15:09:40;20.57;;;10.07;;